Viking Star — LAIW6 — position and weather

sailwx.info

Track history (hours):
 
Tides and Currents Weather Stations Pressure Air Temp Water Temp Dewpoint Dewpoint Depression Visibility Wind Speed Wind Dir Waves Ship Positions

Viking Star

Last reported at 2019-Jul-16 22:15 UTC. Time now 2019-Jul-16 23:21 UTC.
Position N 42°34' E 003°42'.

Length 228 m; draft 6.7 m.

Type: Passenger vessel. MMSI: 257903000.

Date/timePositionNaut miles runAvg speedWind from/ knotsBaromVisibWave heightAir tempDewpointWater temp
2019-Jul-16 22:15N 42°34' E 003°42'1218.7
2019-Jul-16 21:37N 42°46' E 003°45'218.3
2019-Jul-16 21:30N 42°48' E 003°45'918.0
2019-Jul-16 21:00N 42°57' E 003°48'918.0
2019-Jul-16 20:30N 43°06' E 003°50'918.2
2019-Jul-16 20:00N 43°15' E 003°51'815.9
2019-Jul-16 19:30N 43°22' E 003°46'4 6.8
2019-Jul-16 18:59N 43°24' E 003°42'0 0.1
2019-Jul-16 18:26N 43°24' E 003°42'0 0.0
2019-Jul-16 17:59N 43°24' E 003°42'0 0.0
2019-Jul-16 17:29N 43°24' E 003°42'0 0.0
2019-Jul-16 16:59N 43°24' E 003°42'0 0.0
2019-Jul-16 16:26N 43°24' E 003°42'0 0.0
2019-Jul-16 15:59N 43°24' E 003°42'0 0.0
2019-Jul-16 15:26N 43°24' E 003°42'0 0.0
2019-Jul-16 14:59N 43°24' E 003°42'0 0.0
2019-Jul-16 14:29N 43°24' E 003°42'0 0.0
2019-Jul-16 13:59N 43°24' E 003°42'0 0.0
2019-Jul-16 13:26N 43°24' E 003°42'0 0.0
2019-Jul-16 12:59N 43°24' E 003°42'0 0.0
2019-Jul-16 12:29N 43°24' E 003°42'0 0.0
2019-Jul-16 11:59N 43°24' E 003°42'0 0.0
2019-Jul-16 11:29N 43°24' E 003°42'0 0.0
2019-Jul-16 10:59N 43°24' E 003°42'0 0.0
2019-Jul-16 10:29N 43°24' E 003°42'0 0.0
2019-Jul-16 09:59N 43°24' E 003°42'0 0.0
2019-Jul-16 09:20N 43°24' E 003°42'0 0.0
2019-Jul-16 08:59N 43°24' E 003°42'0 0.0
2019-Jul-16 08:29N 43°24' E 003°42'0 0.0
2019-Jul-16 07:59N 43°24' E 003°42'0 0.0
2019-Jul-16 07:29N 43°24' E 003°42'0 0.0
2019-Jul-16 06:59N 43°24' E 003°42'0 0.0
2019-Jul-16 06:29N 43°24' E 003°42'0 0.0
2019-Jul-16 05:59N 43°24' E 003°42'0 0.0
2019-Jul-16 05:30N 43°24' E 003°42'1 2.0
2019-Jul-16 04:48N 43°24' E 003°44'3 8.8
2019-Jul-16 04:30N 43°22' E 003°47'612.3
2019-Jul-16 04:00N 43°17' E 003°52'611.8
2019-Jul-16 03:30N 43°13' E 003°57'911.6
2019-Jul-16 02:42N 43°05' E 004°05'311.2
2019-Jul-16 02:28N 43°05' E 004°08'116 4.0
2019-Jul-14 21:16N 43°08' E 006°48'818.7
2019-Jul-14 20:52N 43°13' E 006°55'718.6
2019-Jul-14 20:30N 43°18' E 007°01'918.5
2019-Jul-14 20:00N 43°25' E 007°09'918.4
2019-Jul-14 19:30N 43°32' E 007°18'918.3
2019-Jul-14 19:00N 43°39' E 007°25'510.2
2019-Jul-14 18:30N 43°44' E 007°26'0 0.1
2019-Jul-14 18:00N 43°44' E 007°26'0 0.0
2019-Jul-14 17:30N 43°44' E 007°26'0 0.0
2019-Jul-14 17:00N 43°44' E 007°26'0 0.0
2019-Jul-14 16:30N 43°44' E 007°26'0 0.0
2019-Jul-14 16:00N 43°44' E 007°26'0 0.0
2019-Jul-14 15:30N 43°44' E 007°26'0 0.0
2019-Jul-14 15:00N 43°44' E 007°26'0 0.0
2019-Jul-14 14:30N 43°44' E 007°26'0 0.0
2019-Jul-14 14:00N 43°44' E 007°26'0 0.0
2019-Jul-14 13:30N 43°44' E 007°26'0 0.0
2019-Jul-14 13:00N 43°44' E 007°26'0 0.0
2019-Jul-14 12:30N 43°44' E 007°26'0 0.0
2019-Jul-14 12:00N 43°44' E 007°26'0 0.0
2019-Jul-14 11:30N 43°44' E 007°26'0 0.0
2019-Jul-14 11:00N 43°44' E 007°26'0 0.0
2019-Jul-14 10:30N 43°44' E 007°26'0 0.0
2019-Jul-14 10:00N 43°44' E 007°26'0 0.0
2019-Jul-14 09:27N 43°44' E 007°26'0 0.0
2019-Jul-14 09:00N 43°44' E 007°26'0 0.0
2019-Jul-14 08:30N 43°44' E 007°26'0 0.0
2019-Jul-14 07:57N 43°44' E 007°26'0 0.0
2019-Jul-14 07:27N 43°44' E 007°26'0 0.0
2019-Jul-14 07:00N 43°44' E 007°26'0 0.0
2019-Jul-14 06:30N 43°44' E 007°26'0 0.0
2019-Jul-14 06:01N 43°44' E 007°26'0 0.7
2019-Jul-14 05:31N 43°44' E 007°26'4 8.5
2019-Jul-14 05:01N 43°43' E 007°32'5 9.7
2019-Jul-14 04:31N 43°42' E 007°39'5 9.9
2019-Jul-14 04:00N 43°41' E 007°45'510.0
2019-Jul-14 03:30N 43°40' E 007°52'510.2
2019-Jul-14 03:01N 43°39' E 007°59'510.5
2019-Jul-14 02:30N 43°38' E 008°06'510.6
2019-Jul-14 02:01N 43°37' E 008°13'510.6
2019-Jul-14 01:31N 43°37' E 008°21'510.3
2019-Jul-14 01:01N 43°37' E 008°28'510.3
2019-Jul-14 00:31N 43°36' E 008°35'510.3
2019-Jul-14 00:01N 43°36' E 008°42'510.6
2019-Jul-13 23:31N 43°35' E 008°49'510.5
2019-Jul-13 23:01N 43°35' E 008°56'510.6
2019-Jul-13 22:31N 43°34' E 009°04'510.6
2019-Jul-13 22:01N 43°34' E 009°11'510.7
2019-Jul-13 21:31N 43°33' E 009°18'510.5
2019-Jul-13 21:01N 43°33' E 009°25'510.3
2019-Jul-13 20:30N 43°32' E 009°33'510.5
2019-Jul-13 20:01N 43°32' E 009°40'510.5
2019-Jul-13 19:31N 43°32' E 009°47'510.4
2019-Jul-13 19:01N 43°31' E 009°54'510.4
2019-Jul-13 18:30N 43°31' E 010°01'510.3
2019-Jul-13 18:01N 43°31' E 010°08'510.3
2019-Jul-13 17:30N 43°32' E 010°15'2 4.2
2019-Jul-13 16:59N 43°33' E 010°18'0 0.0
2019-Jul-13 16:29N 43°33' E 010°18'0 0.0
2019-Jul-13 15:59N 43°33' E 010°18'0 0.0
2019-Jul-13 15:29N 43°33' E 010°18'0 0.0
2019-Jul-13 14:59N 43°33' E 010°18'0 0.0
2019-Jul-13 14:29N 43°33' E 010°18'0 0.0
2019-Jul-13 13:59N 43°33' E 010°18'0 0.0
2019-Jul-13 13:29N 43°33' E 010°18'0 0.0
2019-Jul-13 12:59N 43°33' E 010°18'0 0.0
2019-Jul-13 12:29N 43°33' E 010°18'0 0.0
2019-Jul-13 11:59N 43°33' E 010°18'0 0.0
2019-Jul-13 11:29N 43°33' E 010°18'0 0.0
2019-Jul-13 10:59N 43°33' E 010°18'0 0.0
2019-Jul-13 10:26N 43°33' E 010°18'0 0.0
2019-Jul-13 09:56N 43°33' E 010°18'0 0.0
2019-Jul-13 09:29N 43°33' E 010°18'0 0.0
2019-Jul-13 08:59N 43°33' E 010°18'0 0.0
2019-Jul-13 08:29N 43°33' E 010°18'0 0.0
2019-Jul-13 07:59N 43°33' E 010°18'0 0.0
2019-Jul-13 07:26N 43°33' E 010°18'0 0.0
2019-Jul-13 06:59N 43°33' E 010°18'0 0.0
2019-Jul-13 06:26N 43°33' E 010°18'0 0.0
2019-Jul-13 05:59N 43°33' E 010°18'0 0.0
2019-Jul-13 05:29N 43°33' E 010°18'0 0.0
2019-Jul-13 04:59N 43°33' E 010°18'0 0.0
2019-Jul-13 04:29N 43°33' E 010°18'0 0.0
2019-Jul-13 03:59N 43°33' E 010°18'0 0.0
2019-Jul-13 03:29N 43°33' E 010°18'0 0.0
2019-Jul-13 02:50N 43°33' E 010°18'0 0.0
2019-Jul-13 02:29N 43°33' E 010°18'0 0.0
2019-Jul-13 01:59N 43°33' E 010°18'0 0.0
2019-Jul-13 01:29N 43°33' E 010°18'0 0.0
2019-Jul-13 00:59N 43°33' E 010°18'0 0.0
2019-Jul-13 00:26N 43°33' E 010°18'0 0.0
2019-Jul-12 23:59N 43°33' E 010°18'0 0.0
2019-Jul-12 23:29N 43°33' E 010°18'0 0.0
2019-Jul-12 22:59N 43°33' E 010°18'0 0.0
2019-Jul-12 22:29N 43°33' E 010°18'0 0.0
2019-Jul-12 21:59N 43°33' E 010°18'0 0.0
2019-Jul-12 21:29N 43°33' E 010°18'0 0.0
2019-Jul-12 20:59N 43°33' E 010°18'0 0.0
2019-Jul-12 20:29N 43°33' E 010°18'0 0.0
2019-Jul-12 19:59N 43°33' E 010°18'0 0.0
2019-Jul-12 19:29N 43°33' E 010°18'0 0.0
2019-Jul-12 18:59N 43°33' E 010°18'0 0.0
2019-Jul-12 18:29N 43°33' E 010°18'0 0.0
2019-Jul-12 17:59N 43°33' E 010°18'0 0.0
2019-Jul-12 17:29N 43°33' E 010°18'0 0.0
2019-Jul-12 16:59N 43°33' E 010°18'0 0.0
2019-Jul-12 16:29N 43°33' E 010°18'0 0.0
2019-Jul-12 15:59N 43°33' E 010°18'0 0.0
2019-Jul-12 15:29N 43°33' E 010°18'0 0.0
2019-Jul-12 14:59N 43°33' E 010°18'0 0.0
2019-Jul-12 14:29N 43°33' E 010°18'0 0.0
2019-Jul-12 13:59N 43°33' E 010°18'0 0.0
2019-Jul-12 13:29N 43°33' E 010°18'0 0.0
2019-Jul-12 12:59N 43°33' E 010°18'0 0.0
2019-Jul-12 12:29N 43°33' E 010°18'0 0.0
2019-Jul-12 11:59N 43°33' E 010°18'0 0.0
2019-Jul-12 11:29N 43°33' E 010°18'0 0.0
2019-Jul-12 10:59N 43°33' E 010°18'0 0.0
2019-Jul-12 10:29N 43°33' E 010°18'0 0.0
2019-Jul-12 09:59N 43°33' E 010°18'0 0.0
2019-Jul-12 09:29N 43°33' E 010°18'0 0.0
2019-Jul-12 08:59N 43°33' E 010°18'0 0.0
2019-Jul-12 08:29N 43°33' E 010°18'0 0.0
2019-Jul-12 07:56N 43°33' E 010°18'0 0.0
2019-Jul-12 07:26N 43°33' E 010°18'0 0.0
2019-Jul-12 06:59N 43°33' E 010°18'0 0.5
2019-Jul-12 06:30N 43°33' E 010°17'2 4.1
2019-Jul-12 06:00N 43°32' E 010°16'611.9
2019-Jul-12 05:30N 43°26' E 010°12'714.7
2019-Jul-12 05:01N 43°19' E 010°11'815.9
2019-Jul-12 04:31N 43°11' E 010°08'816.0
2019-Jul-12 04:00N 43°03' E 010°06'816.0
2019-Jul-12 03:30N 42°55' E 010°05'1314.9
2019-Jul-12 02:36N 42°42' E 010°06'216.5
2019-Jul-12 02:29N 42°41' E 010°08'1616.3
2019-Jul-12 01:31N 42°29' E 010°22'816.6
2019-Jul-12 01:00N 42°22' E 010°29'1016.7
2019-Jul-12 00:26N 42°14' E 010°36'2416.6
2019-Jul-11 23:00N 42°01' E 011°04'141 4.8
2019-Jul-10 17:54N 40°40' E 013°36'718.2
2019-Jul-10 17:30N 40°39' E 013°46'816.1
2019-Jul-10 17:00N 40°38' E 013°56'815.7
2019-Jul-10 16:31N 40°40' E 014°06'816.6
2019-Jul-10 16:00N 40°46' E 014°15'510.0
2019-Jul-10 15:30N 40°50' E 014°16'0 0.2
2019-Jul-10 14:58N 40°51' E 014°16'0 0.0
2019-Jul-10 14:28N 40°51' E 014°16'0 0.0
2019-Jul-10 13:58N 40°51' E 014°16'0 0.0
2019-Jul-10 13:28N 40°51' E 014°16'0 0.0
2019-Jul-10 12:58N 40°51' E 014°16'0 0.0
2019-Jul-10 12:28N 40°51' E 014°16'0 0.0
2019-Jul-10 11:58N 40°51' E 014°16'0 0.0
2019-Jul-10 11:28N 40°51' E 014°16'0 0.0
2019-Jul-10 10:58N 40°51' E 014°16'0 0.0
2019-Jul-10 10:25N 40°51' E 014°16'0 0.0
2019-Jul-10 09:58N 40°51' E 014°16'0 0.0
2019-Jul-10 09:28N 40°51' E 014°16'0 0.0
2019-Jul-10 08:58N 40°51' E 014°16'0 0.0
2019-Jul-10 08:28N 40°51' E 014°16'0 0.0
2019-Jul-10 07:58N 40°51' E 014°16'0 0.0
2019-Jul-10 07:28N 40°51' E 014°16'0 0.0
2019-Jul-10 06:55N 40°51' E 014°16'0 0.0
2019-Jul-10 06:28N 40°51' E 014°16'0 0.0
2019-Jul-10 05:58N 40°51' E 014°16'0 0.0
2019-Jul-10 05:28N 40°51' E 014°16'0 0.0
2019-Jul-10 04:58N 40°51' E 014°16'0 0.1
2019-Jul-10 04:30N 40°50' E 014°16'2 3.6
2019-Jul-10 04:00N 40°49' E 014°17'714.9
2019-Jul-10 03:31N 40°42' E 014°13'815.9
2019-Jul-10 03:01N 40°35' E 014°09'815.5
2019-Jul-10 02:30N 40°27' E 014°11'816.8
2019-Jul-10 02:01N 40°20' E 014°16'917.7
2019-Jul-10 01:30N 40°12' E 014°22'918.7
2019-Jul-10 01:00N 40°03' E 014°26'918.6
2019-Jul-10 00:30N 39°55' E 014°31'918.7
2019-Jul-10 00:01N 39°46' E 014°37'1218.8
2019-Jul-09 23:23N 39°36' E 014°43'718.8
2019-Jul-09 23:00N 39°29' E 014°47'2418.7
2019-Jul-09 21:42N 39°07' E 015°01'418.5
2019-Jul-09 21:30N 39°04' E 015°03'918.5
2019-Jul-09 21:00N 38°56' E 015°08'811.9
2019-Jul-09 20:21N 38°48' E 015°11'2 5.3
2019-Jul-09 20:00N 38°47' E 015°11'5 9.9
2019-Jul-09 19:31N 38°43' E 015°14'713.9
2019-Jul-09 19:00N 38°37' E 015°20'713.8
2019-Jul-09 18:31N 38°32' E 015°26'713.6
2019-Jul-09 18:01N 38°27' E 015°32'713.4
2019-Jul-09 17:31N 38°22' E 015°38'612.9
2019-Jul-09 17:00N 38°17' E 015°42'713.4
2019-Jul-09 16:30N 38°12' E 015°36'2 4.6
2019-Jul-09 16:00N 38°12' E 015°33'0 0.0
2019-Jul-09 15:30N 38°12' E 015°33'0 0.0
2019-Jul-09 15:00N 38°12' E 015°33'0 0.0
2019-Jul-09 14:24N 38°12' E 015°33'0 0.0
2019-Jul-09 13:54N 38°12' E 015°33'0 0.0
2019-Jul-09 13:30N 38°12' E 015°33'0 0.0
2019-Jul-09 13:00N 38°12' E 015°33'0 0.0
2019-Jul-09 12:30N 38°12' E 015°33'0 0.0
2019-Jul-09 11:54N 38°12' E 015°33'0 0.0
2019-Jul-09 11:30N 38°12' E 015°33'0 0.0
2019-Jul-09 11:00N 38°12' E 015°33'0 0.0
2019-Jul-09 10:30N 38°12' E 015°33'0 0.0
2019-Jul-09 10:00N 38°12' E 015°33'0 0.0
2019-Jul-09 09:18N 38°12' E 015°33'0 0.0
2019-Jul-09 09:00N 38°12' E 015°33'0 0.0
2019-Jul-09 08:30N 38°12' E 015°33'0 0.0
2019-Jul-09 07:27N 38°12' E 015°33'0 0.0
2019-Jul-09 06:51N 38°12' E 015°33'0 0.0
2019-Jul-09 06:27N 38°12' E 015°33'0 0.0
2019-Jul-09 06:00N 38°12' E 015°33'1 2.3
2019-Jul-09 05:30N 38°13' E 015°34'3 5.3
2019-Jul-09 05:00N 38°11' E 015°37'4 7.3
2019-Jul-09 04:30N 38°07' E 015°36'4 8.2
2019-Jul-09 04:00N 38°03' E 015°36'4 8.4
2019-Jul-09 03:30N 37°59' E 015°35'4 8.8
2019-Jul-09 03:00N 37°55' E 015°39'510.1
2019-Jul-09 02:30N 37°52' E 015°44'611.8
2019-Jul-09 02:00N 37°52' E 015°51'3411.0
2019-Jul-08 22:57N 38°09' E 016°28'  
Track history (hours):
 
Tides and Currents Weather Stations Pressure Air Temp Water Temp Dewpoint Dewpoint Depression Visibility Wind Speed Wind Dir Waves Ship Positions

Viking Star

Last reported at 2019-Jul-16 22:15 UTC. Time now 2019-Jul-16 23:21 UTC.
Position N 42°34' E 003°42'.

Length 228 m; draft 6.7 m.

Type: Passenger vessel. MMSI: 257903000.

Date/timePositionNaut miles runAvg speedWind from/ knotsBaromVisibWave heightAir tempDewpointWater temp
2019-Jul-16 22:15N 42°34' E 003°42'1218.7
2019-Jul-16 21:37N 42°46' E 003°45'218.3
2019-Jul-16 21:30N 42°48' E 003°45'918.0
2019-Jul-16 21:00N 42°57' E 003°48'918.0
2019-Jul-16 20:30N 43°06' E 003°50'918.2
2019-Jul-16 20:00N 43°15' E 003°51'815.9
2019-Jul-16 19:30N 43°22' E 003°46'4 6.8
2019-Jul-16 18:59N 43°24' E 003°42'0 0.1
2019-Jul-16 18:26N 43°24' E 003°42'0 0.0
2019-Jul-16 17:59N 43°24' E 003°42'0 0.0
2019-Jul-16 17:29N 43°24' E 003°42'0 0.0
2019-Jul-16 16:59N 43°24' E 003°42'0 0.0
2019-Jul-16 16:26N 43°24' E 003°42'0 0.0
2019-Jul-16 15:59N 43°24' E 003°42'0 0.0
2019-Jul-16 15:26N 43°24' E 003°42'0 0.0
2019-Jul-16 14:59N 43°24' E 003°42'0 0.0
2019-Jul-16 14:29N 43°24' E 003°42'0 0.0
2019-Jul-16 13:59N 43°24' E 003°42'0 0.0
2019-Jul-16 13:26N 43°24' E 003°42'0 0.0
2019-Jul-16 12:59N 43°24' E 003°42'0 0.0
2019-Jul-16 12:29N 43°24' E 003°42'0 0.0
2019-Jul-16 11:59N 43°24' E 003°42'0 0.0
2019-Jul-16 11:29N 43°24' E 003°42'0 0.0
2019-Jul-16 10:59N 43°24' E 003°42'0 0.0
2019-Jul-16 10:29N 43°24' E 003°42'0 0.0
2019-Jul-16 09:59N 43°24' E 003°42'0 0.0
2019-Jul-16 09:20N 43°24' E 003°42'0 0.0
2019-Jul-16 08:59N 43°24' E 003°42'0 0.0
2019-Jul-16 08:29N 43°24' E 003°42'0 0.0
2019-Jul-16 07:59N 43°24' E 003°42'0 0.0
2019-Jul-16 07:29N 43°24' E 003°42'0 0.0
2019-Jul-16 06:59N 43°24' E 003°42'0 0.0
2019-Jul-16 06:29N 43°24' E 003°42'0 0.0
2019-Jul-16 05:59N 43°24' E 003°42'0 0.0
2019-Jul-16 05:30N 43°24' E 003°42'1 2.0
2019-Jul-16 04:48N 43°24' E 003°44'3 8.8
2019-Jul-16 04:30N 43°22' E 003°47'612.3
2019-Jul-16 04:00N 43°17' E 003°52'611.8
2019-Jul-16 03:30N 43°13' E 003°57'911.6
2019-Jul-16 02:42N 43°05' E 004°05'311.2
2019-Jul-16 02:28N 43°05' E 004°08'116 4.0
2019-Jul-14 21:16N 43°08' E 006°48'818.7
2019-Jul-14 20:52N 43°13' E 006°55'718.6
2019-Jul-14 20:30N 43°18' E 007°01'918.5
2019-Jul-14 20:00N 43°25' E 007°09'918.4
2019-Jul-14 19:30N 43°32' E 007°18'918.3
2019-Jul-14 19:00N 43°39' E 007°25'510.2
2019-Jul-14 18:30N 43°44' E 007°26'0 0.1
2019-Jul-14 18:00N 43°44' E 007°26'0 0.0
2019-Jul-14 17:30N 43°44' E 007°26'0 0.0
2019-Jul-14 17:00N 43°44' E 007°26'0 0.0
2019-Jul-14 16:30N 43°44' E 007°26'0 0.0
2019-Jul-14 16:00N 43°44' E 007°26'0 0.0
2019-Jul-14 15:30N 43°44' E 007°26'0 0.0
2019-Jul-14 15:00N 43°44' E 007°26'0 0.0
2019-Jul-14 14:30N 43°44' E 007°26'0 0.0
2019-Jul-14 14:00N 43°44' E 007°26'0 0.0
2019-Jul-14 13:30N 43°44' E 007°26'0 0.0
2019-Jul-14 13:00N 43°44' E 007°26'0 0.0
2019-Jul-14 12:30N 43°44' E 007°26'0 0.0
2019-Jul-14 12:00N 43°44' E 007°26'0 0.0
2019-Jul-14 11:30N 43°44' E 007°26'0 0.0
2019-Jul-14 11:00N 43°44' E 007°26'0 0.0
2019-Jul-14 10:30N 43°44' E 007°26'0 0.0
2019-Jul-14 10:00N 43°44' E 007°26'0 0.0
2019-Jul-14 09:27N 43°44' E 007°26'0 0.0
2019-Jul-14 09:00N 43°44' E 007°26'0 0.0
2019-Jul-14 08:30N 43°44' E 007°26'0 0.0
2019-Jul-14 07:57N 43°44' E 007°26'0 0.0
2019-Jul-14 07:27N 43°44' E 007°26'0 0.0
2019-Jul-14 07:00N 43°44' E 007°26'0 0.0
2019-Jul-14 06:30N 43°44' E 007°26'0 0.0
2019-Jul-14 06:01N 43°44' E 007°26'0 0.7
2019-Jul-14 05:31N 43°44' E 007°26'4 8.5
2019-Jul-14 05:01N 43°43' E 007°32'5 9.7
2019-Jul-14 04:31N 43°42' E 007°39'5 9.9
2019-Jul-14 04:00N 43°41' E 007°45'510.0
2019-Jul-14 03:30N 43°40' E 007°52'510.2
2019-Jul-14 03:01N 43°39' E 007°59'510.5
2019-Jul-14 02:30N 43°38' E 008°06'510.6
2019-Jul-14 02:01N 43°37' E 008°13'510.6
2019-Jul-14 01:31N 43°37' E 008°21'510.3
2019-Jul-14 01:01N 43°37' E 008°28'510.3
2019-Jul-14 00:31N 43°36' E 008°35'510.3
2019-Jul-14 00:01N 43°36' E 008°42'510.6
2019-Jul-13 23:31N 43°35' E 008°49'510.5
2019-Jul-13 23:01N 43°35' E 008°56'510.6
2019-Jul-13 22:31N 43°34' E 009°04'510.6
2019-Jul-13 22:01N 43°34' E 009°11'510.7
2019-Jul-13 21:31N 43°33' E 009°18'510.5
2019-Jul-13 21:01N 43°33' E 009°25'510.3
2019-Jul-13 20:30N 43°32' E 009°33'510.5
2019-Jul-13 20:01N 43°32' E 009°40'510.5
2019-Jul-13 19:31N 43°32' E 009°47'510.4
2019-Jul-13 19:01N 43°31' E 009°54'510.4
2019-Jul-13 18:30N 43°31' E 010°01'510.3
2019-Jul-13 18:01N 43°31' E 010°08'510.3
2019-Jul-13 17:30N 43°32' E 010°15'2 4.2
2019-Jul-13 16:59N 43°33' E 010°18'0 0.0
2019-Jul-13 16:29N 43°33' E 010°18'0 0.0
2019-Jul-13 15:59N 43°33' E 010°18'0 0.0
2019-Jul-13 15:29N 43°33' E 010°18'0 0.0
2019-Jul-13 14:59N 43°33' E 010°18'0 0.0
2019-Jul-13 14:29N 43°33' E 010°18'0 0.0
2019-Jul-13 13:59N 43°33' E 010°18'0 0.0
2019-Jul-13 13:29N 43°33' E 010°18'0 0.0
2019-Jul-13 12:59N 43°33' E 010°18'0 0.0
2019-Jul-13 12:29N 43°33' E 010°18'0 0.0
2019-Jul-13 11:59N 43°33' E 010°18'0 0.0
2019-Jul-13 11:29N 43°33' E 010°18'0 0.0
2019-Jul-13 10:59N 43°33' E 010°18'0 0.0
2019-Jul-13 10:26N 43°33' E 010°18'0 0.0
2019-Jul-13 09:56N 43°33' E 010°18'0 0.0
2019-Jul-13 09:29N 43°33' E 010°18'0 0.0
2019-Jul-13 08:59N 43°33' E 010°18'0 0.0
2019-Jul-13 08:29N 43°33' E 010°18'0 0.0
2019-Jul-13 07:59N 43°33' E 010°18'0 0.0
2019-Jul-13 07:26N 43°33' E 010°18'0 0.0
2019-Jul-13 06:59N 43°33' E 010°18'0 0.0
2019-Jul-13 06:26N 43°33' E 010°18'0 0.0
2019-Jul-13 05:59N 43°33' E 010°18'0 0.0
2019-Jul-13 05:29N 43°33' E 010°18'0 0.0
2019-Jul-13 04:59N 43°33' E 010°18'0 0.0
2019-Jul-13 04:29N 43°33' E 010°18'0 0.0
2019-Jul-13 03:59N 43°33' E 010°18'0 0.0
2019-Jul-13 03:29N 43°33' E 010°18'0 0.0
2019-Jul-13 02:50N 43°33' E 010°18'0 0.0
2019-Jul-13 02:29N 43°33' E 010°18'0 0.0
2019-Jul-13 01:59N 43°33' E 010°18'0 0.0
2019-Jul-13 01:29N 43°33' E 010°18'0 0.0
2019-Jul-13 00:59N 43°33' E 010°18'0 0.0
2019-Jul-13 00:26N 43°33' E 010°18'0 0.0
2019-Jul-12 23:59N 43°33' E 010°18'0 0.0
2019-Jul-12 23:29N 43°33' E 010°18'0 0.0
2019-Jul-12 22:59N 43°33' E 010°18'0 0.0
2019-Jul-12 22:29N 43°33' E 010°18'0 0.0
2019-Jul-12 21:59N 43°33' E 010°18'0 0.0
2019-Jul-12 21:29N 43°33' E 010°18'0 0.0
2019-Jul-12 20:59N 43°33' E 010°18'0 0.0
2019-Jul-12 20:29N 43°33' E 010°18'0 0.0
2019-Jul-12 19:59N 43°33' E 010°18'0 0.0
2019-Jul-12 19:29N 43°33' E 010°18'0 0.0
2019-Jul-12 18:59N 43°33' E 010°18'0 0.0
2019-Jul-12 18:29N 43°33' E 010°18'0 0.0
2019-Jul-12 17:59N 43°33' E 010°18'0 0.0
2019-Jul-12 17:29N 43°33' E 010°18'0 0.0
2019-Jul-12 16:59N 43°33' E 010°18'0 0.0
2019-Jul-12 16:29N 43°33' E 010°18'0 0.0
2019-Jul-12 15:59N 43°33' E 010°18'0 0.0
2019-Jul-12 15:29N 43°33' E 010°18'0 0.0
2019-Jul-12 14:59N 43°33' E 010°18'0 0.0
2019-Jul-12 14:29N 43°33' E 010°18'0 0.0
2019-Jul-12 13:59N 43°33' E 010°18'0 0.0
2019-Jul-12 13:29N 43°33' E 010°18'0 0.0
2019-Jul-12 12:59N 43°33' E 010°18'0 0.0
2019-Jul-12 12:29N 43°33' E 010°18'0 0.0
2019-Jul-12 11:59N 43°33' E 010°18'0 0.0
2019-Jul-12 11:29N 43°33' E 010°18'0 0.0
2019-Jul-12 10:59N 43°33' E 010°18'0 0.0
2019-Jul-12 10:29N 43°33' E 010°18'0 0.0
2019-Jul-12 09:59N 43°33' E 010°18'0 0.0
2019-Jul-12 09:29N 43°33' E 010°18'0 0.0
2019-Jul-12 08:59N 43°33' E 010°18'0 0.0
2019-Jul-12 08:29N 43°33' E 010°18'0 0.0
2019-Jul-12 07:56N 43°33' E 010°18'0 0.0
2019-Jul-12 07:26N 43°33' E 010°18'0 0.0
2019-Jul-12 06:59N 43°33' E 010°18'0 0.5
2019-Jul-12 06:30N 43°33' E 010°17'2 4.1
2019-Jul-12 06:00N 43°32' E 010°16'611.9
2019-Jul-12 05:30N 43°26' E 010°12'714.7
2019-Jul-12 05:01N 43°19' E 010°11'815.9
2019-Jul-12 04:31N 43°11' E 010°08'816.0
2019-Jul-12 04:00N 43°03' E 010°06'816.0
2019-Jul-12 03:30N 42°55' E 010°05'1314.9
2019-Jul-12 02:36N 42°42' E 010°06'216.5
2019-Jul-12 02:29N 42°41' E 010°08'1616.3
2019-Jul-12 01:31N 42°29' E 010°22'816.6
2019-Jul-12 01:00N 42°22' E 010°29'1016.7
2019-Jul-12 00:26N 42°14' E 010°36'2416.6
2019-Jul-11 23:00N 42°01' E 011°04'141 4.8
2019-Jul-10 17:54N 40°40' E 013°36'718.2
2019-Jul-10 17:30N 40°39' E 013°46'816.1
2019-Jul-10 17:00N 40°38' E 013°56'815.7
2019-Jul-10 16:31N 40°40' E 014°06'816.6
2019-Jul-10 16:00N 40°46' E 014°15'510.0
2019-Jul-10 15:30N 40°50' E 014°16'0 0.2
2019-Jul-10 14:58N 40°51' E 014°16'0 0.0
2019-Jul-10 14:28N 40°51' E 014°16'0 0.0
2019-Jul-10 13:58N 40°51' E 014°16'0 0.0
2019-Jul-10 13:28N 40°51' E 014°16'0 0.0
2019-Jul-10 12:58N 40°51' E 014°16'0 0.0
2019-Jul-10 12:28N 40°51' E 014°16'0 0.0
2019-Jul-10 11:58N 40°51' E 014°16'0 0.0
2019-Jul-10 11:28N 40°51' E 014°16'0 0.0
2019-Jul-10 10:58N 40°51' E 014°16'0 0.0
2019-Jul-10 10:25N 40°51' E 014°16'0 0.0
2019-Jul-10 09:58N 40°51' E 014°16'0 0.0
2019-Jul-10 09:28N 40°51' E 014°16'0 0.0
2019-Jul-10 08:58N 40°51' E 014°16'0 0.0
2019-Jul-10 08:28N 40°51' E 014°16'0 0.0
2019-Jul-10 07:58N 40°51' E 014°16'0 0.0
2019-Jul-10 07:28N 40°51' E 014°16'0 0.0
2019-Jul-10 06:55N 40°51' E 014°16'0 0.0
2019-Jul-10 06:28N 40°51' E 014°16'0 0.0
2019-Jul-10 05:58N 40°51' E 014°16'0 0.0
2019-Jul-10 05:28N 40°51' E 014°16'0 0.0
2019-Jul-10 04:58N 40°51' E 014°16'0 0.1
2019-Jul-10 04:30N 40°50' E 014°16'2 3.6
2019-Jul-10 04:00N 40°49' E 014°17'714.9
2019-Jul-10 03:31N 40°42' E 014°13'815.9
2019-Jul-10 03:01N 40°35' E 014°09'815.5
2019-Jul-10 02:30N 40°27' E 014°11'816.8
2019-Jul-10 02:01N 40°20' E 014°16'917.7
2019-Jul-10 01:30N 40°12' E 014°22'918.7
2019-Jul-10 01:00N 40°03' E 014°26'918.6
2019-Jul-10 00:30N 39°55' E 014°31'918.7
2019-Jul-10 00:01N 39°46' E 014°37'1218.8
2019-Jul-09 23:23N 39°36' E 014°43'718.8
2019-Jul-09 23:00N 39°29' E 014°47'2418.7
2019-Jul-09 21:42N 39°07' E 015°01'418.5
2019-Jul-09 21:30N 39°04' E 015°03'918.5
2019-Jul-09 21:00N 38°56' E 015°08'811.9
2019-Jul-09 20:21N 38°48' E 015°11'2 5.3
2019-Jul-09 20:00N 38°47' E 015°11'5 9.9
2019-Jul-09 19:31N 38°43' E 015°14'713.9
2019-Jul-09 19:00N 38°37' E 015°20'713.8
2019-Jul-09 18:31N 38°32' E 015°26'713.6
2019-Jul-09 18:01N 38°27' E 015°32'713.4
2019-Jul-09 17:31N 38°22' E 015°38'612.9
2019-Jul-09 17:00N 38°17' E 015°42'713.4
2019-Jul-09 16:30N 38°12' E 015°36'2 4.6
2019-Jul-09 16:00N 38°12' E 015°33'0 0.0
2019-Jul-09 15:30N 38°12' E 015°33'0 0.0
2019-Jul-09 15:00N 38°12' E 015°33'0 0.0
2019-Jul-09 14:24N 38°12' E 015°33'0 0.0
2019-Jul-09 13:54N 38°12' E 015°33'0 0.0
2019-Jul-09 13:30N 38°12' E 015°33'0 0.0
2019-Jul-09 13:00N 38°12' E 015°33'0 0.0
2019-Jul-09 12:30N 38°12' E 015°33'0 0.0
2019-Jul-09 11:54N 38°12' E 015°33'0 0.0
2019-Jul-09 11:30N 38°12' E 015°33'0 0.0
2019-Jul-09 11:00N 38°12' E 015°33'0 0.0
2019-Jul-09 10:30N 38°12' E 015°33'0 0.0
2019-Jul-09 10:00N 38°12' E 015°33'0 0.0
2019-Jul-09 09:18N 38°12' E 015°33'0 0.0
2019-Jul-09 09:00N 38°12' E 015°33'0 0.0
2019-Jul-09 08:30N 38°12' E 015°33'0 0.0
2019-Jul-09 07:27N 38°12' E 015°33'0 0.0
2019-Jul-09 06:51N 38°12' E 015°33'0 0.0
2019-Jul-09 06:27N 38°12' E 015°33'0 0.0
2019-Jul-09 06:00N 38°12' E 015°33'1 2.3
2019-Jul-09 05:30N 38°13' E 015°34'3 5.3
2019-Jul-09 05:00N 38°11' E 015°37'4 7.3
2019-Jul-09 04:30N 38°07' E 015°36'4 8.2
2019-Jul-09 04:00N 38°03' E 015°36'4 8.4
2019-Jul-09 03:30N 37°59' E 015°35'4 8.8
2019-Jul-09 03:00N 37°55' E 015°39'510.1
2019-Jul-09 02:30N 37°52' E 015°44'611.8
2019-Jul-09 02:00N 37°52' E 015°51'3411.0
2019-Jul-08 22:57N 38°09' E 016°28'  

Dump ship's entire track history